createdAt,value
2022-09-29T00:00:09.398Z,3.57
2022-09-29T00:02:37.301Z,3.67
2022-09-29T00:05:05.640Z,3.77
2022-09-29T00:07:33.490Z,3.60
2022-09-29T00:10:01.324Z,3.60
2022-09-29T00:12:29.354Z,3.90
2022-09-29T00:14:58.568Z,3.80
2022-09-29T00:17:26.488Z,3.40
2022-09-29T00:19:54.378Z,3.67
2022-09-29T00:22:22.233Z,3.57
2022-09-29T00:24:50.104Z,3.57
2022-09-29T00:27:18.091Z,3.73
2022-09-29T00:29:45.994Z,3.80
2022-09-29T00:32:15.218Z,3.50
2022-09-29T00:34:43.089Z,3.87
2022-09-29T00:37:11.167Z,3.47
2022-09-29T00:39:39.038Z,3.83
2022-09-29T00:42:07.028Z,3.50
2022-09-29T00:45:00.393Z,3.67
2022-09-29T00:47:29.810Z,3.87
2022-09-29T00:49:59.160Z,3.30
2022-09-29T00:52:28.084Z,3.30
2022-09-29T00:54:57.558Z,3.53
2022-09-29T00:57:29.020Z,3.60
2022-09-29T00:59:59.507Z,3.63
2022-09-29T01:02:29.952Z,3.30
2022-09-29T01:04:57.881Z,3.67
2022-09-29T01:07:25.809Z,3.10
2022-09-29T01:09:54.097Z,3.50
2022-09-29T01:12:22.021Z,3.63
2022-09-29T01:14:49.909Z,3.50
2022-09-29T01:17:17.929Z,3.73
2022-09-29T01:19:50.629Z,3.33
2022-09-29T01:22:27.017Z,3.67
2022-09-29T01:24:59.615Z,3.60
2022-09-29T01:28:09.192Z,3.40
2022-09-29T01:30:57.231Z,3.40
2022-09-29T01:33:28.642Z,3.30
2022-09-29T01:36:02.005Z,3.60
2022-09-29T01:38:37.315Z,2.97
2022-09-29T01:41:08.321Z,3.97
2022-09-29T01:43:37.808Z,3.00
2022-09-29T01:46:09.954Z,2.90
2022-09-29T01:48:39.707Z,3.27
2022-09-29T01:51:10.277Z,3.13
2022-09-29T01:53:39.694Z,3.30
2022-09-29T01:56:10.342Z,3.30
2022-09-29T01:58:41.241Z,3.10
2022-09-29T02:01:12.006Z,3.20
2022-09-29T02:03:42.110Z,3.50
2022-09-29T02:06:11.804Z,2.97
2022-09-29T02:08:41.743Z,3.33
2022-09-29T02:11:11.304Z,3.53
2022-09-29T02:13:40.831Z,3.10
2022-09-29T02:16:11.983Z,3.37
2022-09-29T02:18:43.269Z,3.20
2022-09-29T02:21:11.141Z,3.07
2022-09-29T02:23:39.019Z,3.10
2022-09-29T02:26:06.882Z,3.10
2022-09-29T02:28:34.849Z,3.10
2022-09-29T02:31:02.910Z,3.10
2022-09-29T02:33:32.326Z,3.50
2022-09-29T02:36:07.775Z,3.00
2022-09-29T02:38:41.295Z,3.13
2022-09-29T02:41:15.295Z,3.00
2022-09-29T02:43:57.229Z,3.17
2022-09-29T02:46:34.858Z,3.07
2022-09-29T02:49:32.185Z,2.73
2022-09-29T02:52:01.142Z,2.43
2022-09-29T02:54:39.950Z,3.17
2022-09-29T02:57:14.015Z,2.80
2022-09-29T02:59:46.053Z,3.07
2022-09-29T03:02:14.297Z,2.90
2022-09-29T03:04:43.526Z,2.40
2022-09-29T03:07:11.420Z,2.67
2022-09-29T03:09:39.482Z,2.70
2022-09-29T03:12:07.451Z,2.73
2022-09-29T03:14:35.344Z,2.97
2022-09-29T03:17:03.636Z,3.27
2022-09-29T03:19:31.489Z,2.67
2022-09-29T03:22:00.745Z,2.63
2022-09-29T03:24:28.603Z,3.03
2022-09-29T03:26:56.486Z,3.10
2022-09-29T03:29:24.348Z,2.63
2022-09-29T03:31:52.340Z,2.37
2022-09-29T03:34:20.279Z,2.57
2022-09-29T03:36:48.175Z,2.63
2022-09-29T03:39:18.793Z,2.60
2022-09-29T03:41:46.743Z,2.80
2022-09-29T03:44:14.609Z,2.37
2022-09-29T03:46:42.598Z,2.60
2022-09-29T03:49:11.672Z,2.40
2022-09-29T03:51:39.597Z,2.80
2022-09-29T03:54:07.749Z,2.50
2022-09-29T03:56:37.332Z,2.57
2022-09-29T03:59:05.632Z,2.67
2022-09-29T04:01:33.581Z,2.50
2022-09-29T04:04:01.926Z,2.50
2022-09-29T04:06:29.826Z,2.80
2022-09-29T04:08:57.703Z,2.63
2022-09-29T04:11:25.665Z,2.40
2022-09-29T04:13:54.980Z,2.40
2022-09-29T04:16:22.913Z,2.27
2022-09-29T04:18:50.810Z,2.60
2022-09-29T04:21:18.698Z,3.40
2022-09-29T04:23:46.617Z,2.27
2022-09-29T04:26:14.467Z,2.90
2022-09-29T04:28:42.352Z,2.60
2022-09-29T04:31:11.688Z,2.83
2022-09-29T04:33:40.406Z,2.60
2022-09-29T04:36:08.616Z,3.03
2022-09-29T04:38:36.523Z,2.20
2022-09-29T04:41:04.503Z,2.43
2022-09-29T04:43:32.382Z,2.50
2022-09-29T04:46:05.273Z,2.40
2022-09-29T04:48:36.090Z,2.63
2022-09-29T04:51:04.554Z,2.27
2022-09-29T04:53:32.546Z,2.60
2022-09-29T04:56:01.051Z,2.63
2022-09-29T04:58:28.908Z,2.60
2022-09-29T05:00:56.855Z,2.50
2022-09-29T05:03:25.949Z,2.20
2022-09-29T05:05:57.371Z,2.27
2022-09-29T05:08:25.242Z,2.30
2022-09-29T05:10:53.127Z,2.60
2022-09-29T05:13:21.007Z,2.60
2022-09-29T05:15:48.905Z,2.50
2022-09-29T05:18:16.808Z,2.47
2022-09-29T05:20:59.177Z,2.10
2022-09-29T05:23:34.001Z,2.77
2022-09-29T05:26:03.081Z,2.73
2022-09-29T05:28:30.956Z,2.33
2022-09-29T05:31:02.444Z,2.43
2022-09-29T05:33:30.447Z,2.50
2022-09-29T05:35:58.365Z,2.83
2022-09-29T05:38:26.457Z,2.60
2022-09-29T05:40:55.801Z,2.43
2022-09-29T05:43:23.744Z,2.33
2022-09-29T05:45:51.690Z,2.40
2022-09-29T05:48:19.627Z,2.20
2022-09-29T05:50:47.492Z,2.47
2022-09-29T05:53:15.343Z,2.53
2022-09-29T05:55:43.231Z,2.30
2022-09-29T05:58:12.503Z,2.40
2022-09-29T06:00:40.404Z,2.40
2022-09-29T06:03:08.285Z,2.40
2022-09-29T06:05:39.418Z,2.47
2022-09-29T06:08:07.401Z,2.30
2022-09-29T06:10:35.497Z,2.60
2022-09-29T06:13:04.360Z,1.87
2022-09-29T06:15:33.638Z,2.60
2022-09-29T06:18:01.650Z,2.63
2022-09-29T06:20:29.543Z,2.60
2022-09-29T06:22:57.445Z,2.30
2022-09-29T06:25:25.322Z,2.30
2022-09-29T06:27:53.218Z,2.33
2022-09-29T06:30:21.102Z,2.40
2022-09-29T06:32:50.609Z,2.70
2022-09-29T06:35:36.136Z,2.50
2022-09-29T06:38:04.027Z,2.27
2022-09-29T06:40:31.966Z,2.20
2022-09-29T06:42:59.865Z,2.20
2022-09-29T06:45:27.775Z,2.27
2022-09-29T06:48:00.878Z,2.47
2022-09-29T06:50:28.798Z,2.60
2022-09-29T06:53:03.713Z,2.37
2022-09-29T06:55:32.478Z,2.27
2022-09-29T06:58:04.028Z,2.43
2022-09-29T07:00:32.830Z,2.40
2022-09-29T07:03:02.113Z,3.07
2022-09-29T07:05:30.001Z,2.50
2022-09-29T07:08:01.099Z,2.33
2022-09-29T07:10:29.345Z,2.10
2022-09-29T07:12:57.227Z,2.60
2022-09-29T07:15:31.380Z,2.17
2022-09-29T07:17:59.616Z,2.37
2022-09-29T07:20:29.160Z,2.47
2022-09-29T07:22:57.675Z,2.30
2022-09-29T07:25:49.887Z,2.50
2022-09-29T07:28:13.470Z,2.80
2022-09-29T07:30:41.389Z,2.47
2022-09-29T07:33:09.368Z,2.30
2022-09-29T07:35:40.052Z,2.27
2022-09-29T07:38:08.341Z,2.47
2022-09-29T07:40:36.294Z,2.43
2022-09-29T07:43:04.686Z,2.60
2022-09-29T07:45:33.020Z,2.80
2022-09-29T07:48:01.134Z,2.40
2022-09-29T07:50:29.014Z,2.73
2022-09-29T07:52:58.223Z,2.43
2022-09-29T07:55:26.206Z,2.27
2022-09-29T07:57:54.094Z,2.40
2022-09-29T08:00:21.994Z,2.40
2022-09-29T08:02:49.861Z,2.50
2022-09-29T08:05:18.013Z,2.37
2022-09-29T08:07:45.901Z,2.33
2022-09-29T08:10:17.712Z,2.87
2022-09-29T08:12:45.847Z,2.50
2022-09-29T08:15:13.759Z,2.60
2022-09-29T08:17:41.743Z,2.50
2022-09-29T08:20:10.036Z,2.47
2022-09-29T08:22:37.946Z,2.33
2022-09-29T08:25:06.294Z,3.70
2022-09-29T08:27:47.238Z,3.10
2022-09-29T08:30:18.458Z,2.70
2022-09-29T08:32:51.791Z,2.30
2022-09-29T08:35:19.710Z,2.80
2022-09-29T08:37:48.877Z,2.80
2022-09-29T08:40:17.158Z,2.50
2022-09-29T08:42:52.808Z,3.00
2022-09-29T08:45:25.295Z,2.60
2022-09-29T08:47:53.332Z,2.40
2022-09-29T08:50:27.050Z,2.43
2022-09-29T08:52:56.434Z,2.80
2022-09-29T08:55:28.073Z,2.70
2022-09-29T08:57:59.020Z,2.63
2022-09-29T09:00:33.051Z,2.50
2022-09-29T09:03:08.187Z,2.60
2022-09-29T09:05:44.106Z,2.43
2022-09-29T09:08:15.278Z,2.60
2022-09-29T09:10:47.261Z,2.60
2022-09-29T09:13:45.463Z,2.40
2022-09-29T09:16:17.901Z,2.57
2022-09-29T09:19:27.033Z,2.30
2022-09-29T09:21:59.088Z,2.57
2022-09-29T09:24:29.740Z,2.70
2022-09-29T09:26:58.109Z,2.30
2022-09-29T09:29:32.658Z,2.57
2022-09-29T09:32:04.411Z,2.50
2022-09-29T09:34:43.154Z,2.40
2022-09-29T09:37:13.396Z,2.37
2022-09-29T09:39:44.055Z,2.57
2022-09-29T09:42:15.874Z,2.13
2022-09-29T09:44:48.088Z,2.17
2022-09-29T09:47:23.673Z,2.33
2022-09-29T09:49:53.407Z,2.60
2022-09-29T09:52:23.506Z,2.53
2022-09-29T09:54:52.711Z,2.27
2022-09-29T09:57:45.162Z,2.70
2022-09-29T10:00:15.190Z,2.23
2022-09-29T10:02:46.178Z,2.43
2022-09-29T10:05:14.821Z,2.50
2022-09-29T10:07:42.689Z,2.67
2022-09-29T10:10:16.744Z,2.30
2022-09-29T10:12:45.165Z,2.53
2022-09-29T10:15:24.259Z,2.70
2022-09-29T10:17:57.176Z,2.60
2022-09-29T10:20:32.260Z,2.60
2022-09-29T10:23:20.486Z,3.17
2022-09-29T10:25:53.631Z,3.37
2022-09-29T10:28:21.609Z,3.43
2022-09-29T10:30:50.966Z,4.70
2022-09-29T10:33:19.585Z,4.37
2022-09-29T10:35:48.095Z,5.40
2022-09-29T10:38:19.817Z,4.13
2022-09-29T10:40:58.731Z,4.00
2022-09-29T10:43:27.829Z,5.00
2022-09-29T10:45:58.743Z,3.57
2022-09-29T10:48:27.042Z,3.83
2022-09-29T10:50:56.355Z,4.27
2022-09-29T10:53:34.121Z,4.83
2022-09-29T10:56:05.366Z,3.87
2022-09-29T10:58:53.161Z,4.30
2022-09-29T11:01:25.778Z,4.30
2022-09-29T11:03:54.769Z,3.87
2022-09-29T11:06:27.228Z,4.27
2022-09-29T11:08:59.691Z,3.53
2022-09-29T11:11:29.589Z,3.60
2022-09-29T11:13:58.024Z,4.80
2022-09-29T11:16:31.337Z,4.63
2022-09-29T11:19:02.447Z,4.03
2022-09-29T11:21:49.331Z,3.73
2022-09-29T11:24:19.962Z,3.63
2022-09-29T11:26:49.471Z,3.50
2022-09-29T11:29:29.817Z,3.70
2022-09-29T11:32:20.127Z,3.30
2022-09-29T11:34:57.418Z,3.97
2022-09-29T11:37:34.982Z,3.63
2022-09-29T11:40:12.310Z,3.20
2022-09-29T11:42:52.771Z,3.53
2022-09-29T11:45:24.304Z,3.73
2022-09-29T11:48:30.658Z,3.87
2022-09-29T11:51:01.690Z,3.00
2022-09-29T11:53:46.096Z,3.63
2022-09-29T11:56:23.996Z,3.13
2022-09-29T11:58:57.691Z,3.57
2022-09-29T12:01:30.880Z,3.43
2022-09-29T12:04:15.414Z,3.30
2022-09-29T12:06:53.162Z,2.93
2022-09-29T12:09:42.086Z,2.73
2022-09-29T12:12:23.021Z,3.40
2022-09-29T12:15:04.542Z,3.53
2022-09-29T12:17:34.959Z,3.03
2022-09-29T12:20:06.991Z,3.20
2022-09-29T12:22:36.883Z,2.90
2022-09-29T12:25:06.625Z,2.50
2022-09-29T12:27:36.259Z,3.23
2022-09-29T12:30:06.220Z,3.33
2022-09-29T12:32:36.292Z,2.77
2022-09-29T12:35:07.789Z,2.80
2022-09-29T12:37:37.591Z,2.97
2022-09-29T12:40:10.491Z,3.03
2022-09-29T12:42:59.986Z,2.93
2022-09-29T12:45:34.821Z,2.23
2022-09-29T12:48:13.175Z,3.10
2022-09-29T12:50:45.640Z,2.60
2022-09-29T12:53:16.043Z,2.70
2022-09-29T12:55:47.455Z,2.73
2022-09-29T12:58:19.787Z,2.57
2022-09-29T13:00:48.906Z,2.63
2022-09-29T13:03:45.833Z,2.60
2022-09-29T13:06:56.522Z,2.63
2022-09-29T13:09:48.197Z,2.50
2022-09-29T13:12:24.047Z,2.90
2022-09-29T13:15:01.736Z,2.60
2022-09-29T13:17:42.632Z,3.93
2022-09-29T13:20:33.020Z,3.87
2022-09-29T13:23:32.561Z,3.40
2022-09-29T13:26:07.291Z,3.83
2022-09-29T13:28:35.942Z,5.07
2022-09-29T13:31:05.931Z,4.17
2022-09-29T13:33:34.105Z,4.10
2022-09-29T13:36:02.316Z,3.90
2022-09-29T13:38:32.478Z,3.73
2022-09-29T13:41:12.222Z,4.23
2022-09-29T13:43:40.566Z,4.17
2022-09-29T13:46:27.643Z,4.70
2022-09-29T13:49:03.644Z,4.00
2022-09-29T13:51:47.806Z,4.33
2022-09-29T13:54:26.793Z,4.20
2022-09-29T13:57:28.583Z,4.70
2022-09-29T14:00:28.128Z,4.00
2022-09-29T14:03:25.256Z,5.00
2022-09-29T14:05:58.058Z,5.10
2022-09-29T14:08:28.689Z,4.83
2022-09-29T14:11:04.504Z,5.13
2022-09-29T14:13:35.180Z,4.80
2022-09-29T14:16:10.409Z,4.33
2022-09-29T14:18:39.496Z,4.20
2022-09-29T14:21:10.887Z,4.20
2022-09-29T14:23:52.623Z,4.77
2022-09-29T14:26:44.315Z,3.90
2022-09-29T14:29:16.506Z,3.90
2022-09-29T14:31:46.996Z,4.07
2022-09-29T14:34:16.291Z,4.37
2022-09-29T14:36:46.956Z,5.40
2022-09-29T14:39:25.963Z,4.47
2022-09-29T14:41:55.543Z,4.57
2022-09-29T14:44:24.955Z,4.10
2022-09-29T14:47:28.486Z,4.27
2022-09-29T14:50:49.622Z,4.30
2022-09-29T14:53:41.778Z,4.20
2022-09-29T14:56:17.371Z,4.90
2022-09-29T14:59:00.122Z,4.30
2022-09-29T15:01:29.332Z,4.37
2022-09-29T15:03:58.166Z,4.50
2022-09-29T15:06:27.613Z,4.07
2022-09-29T15:08:57.586Z,4.43
2022-09-29T15:11:27.029Z,4.30
2022-09-29T15:13:56.649Z,3.70
2022-09-29T15:16:29.792Z,4.40
2022-09-29T15:19:23.499Z,3.90
2022-09-29T15:21:56.471Z,4.10
2022-09-29T15:24:51.951Z,4.00
2022-09-29T15:27:19.852Z,4.03
2022-09-29T15:29:49.299Z,4.30
2022-09-29T15:32:28.658Z,4.20
2022-09-29T15:35:02.291Z,4.10
2022-09-29T15:37:31.961Z,3.90
2022-09-29T15:39:59.823Z,4.37
2022-09-29T15:42:29.864Z,4.07
2022-09-29T15:45:02.836Z,4.50
2022-09-29T15:47:35.321Z,4.27
2022-09-29T15:50:05.247Z,4.10
2022-09-29T15:52:34.837Z,4.00
2022-09-29T15:55:02.754Z,4.30
2022-09-29T15:57:47.079Z,3.70
2022-09-29T16:00:44.943Z,3.60
2022-09-29T16:03:15.489Z,4.17
2022-09-29T16:05:46.017Z,3.53
2022-09-29T16:08:15.879Z,4.20
2022-09-29T16:10:48.986Z,4.13
2022-09-29T16:13:19.105Z,3.90
2022-09-29T16:15:49.364Z,3.60
2022-09-29T16:18:19.942Z,3.40
2022-09-29T16:20:47.919Z,3.47
2022-09-29T16:23:22.070Z,3.60
2022-09-29T16:26:14.228Z,3.67
2022-09-29T16:28:59.310Z,3.97
2022-09-29T16:31:29.372Z,3.70
2022-09-29T16:33:58.017Z,3.87
2022-09-29T16:36:27.047Z,3.60
2022-09-29T16:38:54.962Z,3.67
2022-09-29T16:41:34.259Z,3.37
2022-09-29T16:44:13.953Z,3.20
2022-09-29T16:46:52.846Z,3.43
2022-09-29T16:49:22.119Z,2.90
2022-09-29T16:51:50.827Z,3.20
2022-09-29T16:54:21.572Z,3.20
2022-09-29T16:56:50.311Z,2.83
2022-09-29T16:59:20.023Z,3.40
2022-09-29T17:01:48.296Z,3.33
2022-09-29T17:04:18.110Z,3.50
2022-09-29T17:06:47.345Z,2.97
2022-09-29T17:09:19.167Z,9.93
2022-09-29T17:11:49.392Z,6.90
2022-09-29T17:14:18.309Z,9.00
2022-09-29T17:16:46.260Z,8.30
2022-09-29T17:19:14.250Z,9.17
2022-09-29T17:21:43.467Z,7.97
2022-09-29T17:24:11.529Z,6.97
2022-09-29T17:26:58.036Z,7.13
2022-09-29T17:29:26.004Z,7.60
2022-09-29T17:31:53.947Z,6.87
2022-09-29T17:34:29.219Z,7.20
2022-09-29T17:37:00.152Z,6.87
2022-09-29T17:39:28.212Z,6.97
2022-09-29T17:41:56.062Z,7.33
2022-09-29T17:44:24.942Z,7.20
2022-09-29T17:47:01.050Z,6.63
2022-09-29T17:49:40.316Z,6.93
2022-09-29T17:52:12.549Z,6.83
2022-09-29T17:54:40.435Z,8.47
2022-09-29T17:57:08.412Z,7.43
2022-09-29T17:59:40.259Z,7.13
2022-09-29T18:02:12.091Z,7.50
2022-09-29T18:04:41.202Z,7.80
2022-09-29T18:07:11.722Z,7.17
2022-09-29T18:09:39.889Z,7.60
2022-09-29T18:12:07.823Z,10.40
2022-09-29T18:14:36.811Z,10.97
2022-09-29T18:17:05.704Z,10.53
2022-09-29T18:19:40.064Z,20.83
2022-09-29T18:22:08.217Z,19.97
2022-09-29T18:24:37.455Z,19.30
2022-09-29T18:27:05.523Z,20.40
2022-09-29T18:29:33.407Z,22.27
2022-09-29T18:32:01.462Z,17.60
2022-09-29T18:34:33.458Z,20.97
2022-09-29T18:37:01.343Z,17.97
2022-09-29T18:39:29.231Z,18.90
2022-09-29T18:41:58.507Z,16.33
2022-09-29T18:44:29.492Z,19.30
2022-09-29T18:46:57.495Z,17.57
2022-09-29T18:49:25.484Z,42.17
2022-09-29T18:51:53.377Z,33.70
2022-09-29T18:54:21.234Z,23.73
2022-09-29T18:56:52.596Z,28.20
2022-09-29T18:59:23.813Z,27.80
2022-09-29T19:01:51.808Z,25.60
2022-09-29T19:04:19.835Z,27.70
2022-09-29T19:06:47.705Z,25.37
2022-09-29T19:09:15.760Z,27.33
2022-09-29T19:11:45.011Z,26.67
2022-09-29T19:14:13.679Z,27.17
2022-09-29T19:16:44.352Z,21.23
2022-09-29T19:19:12.213Z,22.47
2022-09-29T19:21:42.403Z,23.87
2022-09-29T19:24:10.292Z,24.30
2022-09-29T19:26:38.575Z,23.60
2022-09-29T19:29:06.458Z,20.87
2022-09-29T19:31:34.418Z,23.10
2022-09-29T19:34:03.716Z,22.47
2022-09-29T19:36:31.639Z,21.97
2022-09-29T19:39:01.874Z,24.07
2022-09-29T19:41:29.798Z,29.57
2022-09-29T19:43:57.654Z,26.57
2022-09-29T19:46:25.631Z,27.30
2022-09-29T19:48:53.540Z,26.07
2022-09-29T19:51:41.173Z,28.60
2022-09-29T19:54:11.390Z,25.53
2022-09-29T19:56:40.414Z,22.73
2022-09-29T19:59:10.396Z,23.60
2022-09-29T20:01:38.541Z,23.43
2022-09-29T20:04:06.494Z,21.40
2022-09-29T20:06:36.692Z,22.87
2022-09-29T20:09:05.418Z,20.03
2022-09-29T20:11:33.711Z,21.03
2022-09-29T20:14:03.230Z,20.87
2022-09-29T20:16:33.453Z,19.53
2022-09-29T20:19:01.391Z,18.83
2022-09-29T20:21:29.320Z,18.30
2022-09-29T20:23:59.139Z,14.93
2022-09-29T20:26:27.051Z,19.90
2022-09-29T20:28:55.055Z,17.90
2022-09-29T20:31:23.135Z,19.50
2022-09-29T20:33:51.395Z,15.87
2022-09-29T20:36:19.317Z,15.37
2022-09-29T20:38:48.016Z,17.33
2022-09-29T20:41:17.499Z,15.27
2022-09-29T20:43:47.899Z,15.63
2022-09-29T20:46:15.867Z,15.90
2022-09-29T20:48:44.158Z,16.87
2022-09-29T20:51:15.044Z,17.30
2022-09-29T20:53:43.665Z,14.73
2022-09-29T20:56:12.751Z,14.17
2022-09-29T20:58:44.025Z,15.33
2022-09-29T21:01:14.055Z,14.23
2022-09-29T21:03:41.998Z,14.47
2022-09-29T21:06:09.915Z,12.67
2022-09-29T21:08:39.126Z,13.27
2022-09-29T21:11:07.228Z,12.37
2022-09-29T21:13:35.132Z,11.47
2022-09-29T21:16:04.880Z,11.97
2022-09-29T21:18:33.070Z,11.07
2022-09-29T21:21:02.731Z,11.63
2022-09-29T21:23:31.284Z,12.40
2022-09-29T21:26:00.760Z,12.13
2022-09-29T21:28:28.615Z,11.20
2022-09-29T21:31:04.824Z,10.47
2022-09-29T21:33:32.891Z,12.60
2022-09-29T21:36:01.566Z,11.47
2022-09-29T21:38:31.346Z,9.57
2022-09-29T21:41:03.705Z,11.30
2022-09-29T21:43:32.489Z,9.50
2022-09-29T21:46:05.476Z,9.73
2022-09-29T21:48:34.920Z,10.40
2022-09-29T21:51:04.194Z,8.57
2022-09-29T21:53:32.396Z,8.73
2022-09-29T21:56:01.585Z,10.00
2022-09-29T21:58:29.701Z,10.73
2022-09-29T22:00:57.740Z,11.10
2022-09-29T22:03:27.314Z,8.17
2022-09-29T22:05:55.193Z,9.80
2022-09-29T22:08:23.538Z,8.90
2022-09-29T22:10:51.667Z,9.97
2022-09-29T22:13:19.621Z,8.13
2022-09-29T22:15:47.765Z,9.20
2022-09-29T22:18:15.675Z,10.37
2022-09-29T22:20:44.927Z,8.20
2022-09-29T22:23:12.770Z,8.87
2022-09-29T22:25:43.461Z,8.87
2022-09-29T22:28:11.360Z,7.40
2022-09-29T22:30:39.320Z,8.10
2022-09-29T22:33:07.373Z,8.00
2022-09-29T22:35:35.430Z,9.17
2022-09-29T22:38:08.038Z,7.17
2022-09-29T22:40:36.416Z,7.33
2022-09-29T22:43:04.795Z,7.70
2022-09-29T22:45:33.433Z,7.10
2022-09-29T22:48:01.549Z,6.93
2022-09-29T22:50:31.362Z,7.93
2022-09-29T22:52:59.365Z,7.40
2022-09-29T22:55:29.399Z,6.77
2022-09-29T22:57:57.567Z,7.27
2022-09-29T23:00:25.930Z,6.60
2022-09-29T23:02:53.847Z,7.47
2022-09-29T23:05:21.743Z,7.97
2022-09-29T23:07:49.640Z,6.87
2022-09-29T23:10:17.828Z,6.37
2022-09-29T23:12:48.172Z,6.47
2022-09-29T23:15:16.180Z,6.30
2022-09-29T23:17:44.051Z,6.00
2022-09-29T23:20:11.962Z,6.23
2022-09-29T23:22:40.291Z,6.13
2022-09-29T23:25:08.838Z,5.87
2022-09-29T23:27:36.709Z,6.00
2022-09-29T23:30:06.656Z,6.40
2022-09-29T23:32:34.556Z,6.07
2022-09-29T23:35:02.449Z,6.03
2022-09-29T23:37:51.210Z,5.60
2022-09-29T23:40:18.122Z,5.77
2022-09-29T23:42:46.330Z,5.60
2022-09-29T23:45:15.685Z,5.50
2022-09-29T23:47:43.563Z,5.90
2022-09-29T23:50:11.447Z,5.37
2022-09-29T23:52:39.483Z,5.23
2022-09-29T23:55:07.696Z,5.97
2022-09-29T23:57:35.559Z,5.90
